Time;durP1;ratioP1;P1;durP2;ratioP2;P2;SDS_P1;SDS_P2;PMS_P1;PMS_P2;Temp;Humidity;BMP_temperature;BMP_pressure;BME280_temperature;BME280_humidity;BME280_pressure;Samples;Min_cycle;Max_cycle;Signal;HPM_P1;HPM_P2
2021/09/29 00:00:13;;;;;;;;;1.00;1.00;;;;;19.24;47.55;101127.78;2090309;28;48012;-50
2021/09/29 00:01:13;;;;;;;;;0.00;0.00;;;;;19.24;47.79;101125.97;2090829;28;46975;-51
2021/09/29 00:02:14;;;;;;;;;1.67;0.33;;;;;19.24;47.56;101131.34;2091185;28;47576;-48
2021/09/29 00:03:14;;;;;;;;;0.00;0.00;;;;;19.24;47.59;101131.34;2091171;28;48194;-46
2021/09/29 00:04:14;;;;;;;;;0.00;0.00;;;;;19.23;48.04;101129.63;2091709;28;46207;-52
2021/09/29 00:05:15;;;;;;;;;1.00;1.00;;;;;19.23;47.86;101121.53;2091368;28;48045;-53
2021/09/29 00:06:15;;;;;;;;;0.00;0.00;;;;;19.23;47.93;101126.94;2091489;28;47242;-48
2021/09/29 00:07:16;;;;;;;;;0.00;0.00;;;;;19.22;47.91;101122.50;2091395;28;47327;-51
2021/09/29 00:08:16;;;;;;;;;1.00;1.00;;;;;19.22;47.95;101117.13;2091458;28;45407;-51
2021/09/29 00:09:17;;;;;;;;;0.67;0.00;;;;;19.22;48.10;101106.34;2090573;28;48278;-50
2021/09/29 00:10:18;;;;;;;;;0.00;0.00;;;;;19.22;48.02;101116.25;2090927;28;47504;-48
2021/09/29 00:11:18;;;;;;;;;1.00;1.00;;;;;19.21;48.18;101103.75;2091144;28;47128;-50
2021/09/29 00:12:21;;;;;;;;;1.00;1.00;;;;;19.21;48.04;101110.00;2091519;28;45351;-50
2021/09/29 00:13:24;;;;;;;;;0.75;0.75;;;;;19.23;47.99;101112.59;2091372;28;46391;-49
2021/09/29 00:14:25;;;;;;;;;0.25;0.25;;;;;19.21;48.03;101104.63;2091624;28;48544;-51
2021/09/29 00:15:25;;;;;;;;;0.00;0.00;;;;;19.22;48.07;101102.78;2090691;28;46775;-52
2021/09/29 00:16:26;;;;;;;;;0.00;0.00;;;;;19.22;48.27;101098.28;2091088;28;47383;-52
2021/09/29 00:17:26;;;;;;;;;1.33;1.33;;;;;19.21;48.10;101098.38;2091166;28;47052;-53
2021/09/29 00:18:27;;;;;;;;;0.00;0.00;;;;;19.21;48.26;101096.53;2091808;28;46270;-52
2021/09/29 00:19:27;;;;;;;;;1.00;1.00;;;;;19.22;48.22;101092.03;2085255;28;47259;-50
2021/09/29 00:20:28;;;;;;;;;1.00;1.00;;;;;19.22;48.56;101100.09;2090842;28;47070;-48
2021/09/29 00:21:28;;;;;;;;;1.00;0.00;;;;;19.21;48.09;101095.66;2085553;28;47267;-50
2021/09/29 00:22:29;;;;;;;;;0.33;0.33;;;;;19.21;48.40;101095.66;2090569;28;47051;-51
2021/09/29 00:23:29;;;;;;;;;1.00;0.67;;;;;19.21;48.29;101098.38;2091128;28;48356;-47
2021/09/29 00:24:30;;;;;;;;;0.67;0.33;;;;;19.21;48.50;101095.66;2091612;28;46974;-48
2021/09/29 00:25:30;;;;;;;;;1.00;1.00;;;;;19.21;48.25;101103.75;2087028;28;47335;-50
2021/09/29 00:26:31;;;;;;;;;1.00;0.00;;;;;19.21;48.62;101106.44;2090978;28;47244;-49
2021/09/29 00:27:31;;;;;;;;;0.00;0.00;;;;;19.20;48.47;101102.00;2090620;28;47245;-49
2021/09/29 00:28:32;;;;;;;;;0.00;0.00;;;;;19.20;48.27;101102.00;2082396;28;48157;-51
2021/09/29 00:29:33;;;;;;;;;1.00;1.00;;;;;19.20;48.63;101102.00;2090665;28;47632;-50
2021/09/29 00:30:49;;;;;;;;;2.00;0.75;;;;;19.19;48.46;101097.56;2091384;28;46059;-47
2021/09/29 00:31:50;;;;;;;;;0.00;0.00;;;;;19.18;48.67;101096.69;2091046;28;47167;-51
2021/09/29 00:32:50;;;;;;;;;0.00;0.00;;;;;19.18;48.64;101102.06;2091553;28;47225;-50
2021/09/29 00:33:58;;;;;;;;;1.33;1.33;;;;;19.18;48.63;101102.06;2090506;28;47007;-50
2021/09/29 00:34:58;;;;;;;;;0.75;0.75;;;;;19.18;48.50;101106.56;2090953;28;47321;-50
2021/09/29 00:35:59;;;;;;;;;0.00;0.00;;;;;19.17;48.75;101102.13;2090900;28;46863;-50
2021/09/29 00:36:59;;;;;;;;;0.00;0.00;;;;;19.16;48.87;101103.97;2091098;28;47230;-48
2021/09/29 00:38:00;;;;;;;;;0.33;0.33;;;;;19.17;48.48;101107.53;2090461;28;48290;-51
2021/09/29 00:39:00;;;;;;;;;0.00;0.00;;;;;19.15;48.81;101104.03;2082093;28;48223;-47
2021/09/29 00:40:02;;;;;;;;;1.00;1.00;;;;;19.15;48.61;101095.97;2090351;28;48126;-49
2021/09/29 00:41:03;;;;;;;;;1.00;1.00;;;;;19.14;49.00;101103.16;2090913;28;48245;-50
2021/09/29 00:42:05;;;;;;;;;1.33;1.33;;;;;19.15;48.65;101098.66;2091154;28;48058;-50
2021/09/29 00:43:05;;;;;;;;;1.25;0.25;;;;;19.14;48.73;101096.91;2091096;28;48362;-50
2021/09/29 00:44:06;;;;;;;;;0.00;0.00;;;;;19.14;48.68;101080.78;2090806;28;46767;-53
2021/09/29 00:45:07;;;;;;;;;0.33;0.33;;;;;19.13;48.69;101087.09;2090446;28;47073;-52
2021/09/29 00:46:08;;;;;;;;;2.00;1.00;;;;;19.11;48.92;101085.38;2093050;28;48323;-52
2021/09/29 00:47:08;;;;;;;;;0.00;0.00;;;;;19.11;49.09;101076.44;2091100;28;47645;-52
2021/09/29 00:48:09;;;;;;;;;0.00;0.00;;;;;19.10;49.18;101085.47;2091533;28;47309;-50
2021/09/29 00:49:10;;;;;;;;;0.00;0.00;;;;;19.10;49.00;101075.56;2090525;28;46652;-57
2021/09/29 00:50:11;;;;;;;;;0.00;0.00;;;;;19.10;49.15;101072.00;2096118;28;47397;-51
2021/09/29 00:51:12;;;;;;;;;1.00;0.33;;;;;19.09;49.38;101072.97;2095331;28;48111;-51
2021/09/29 00:52:13;;;;;;;;;2.00;1.00;;;;;19.07;49.41;101073.03;2090705;28;48304;-51
2021/09/29 00:53:14;;;;;;;;;0.00;0.00;;;;;19.08;49.06;101080.16;2090281;28;47625;-51
2021/09/29 00:54:15;;;;;;;;;2.67;1.00;;;;;19.08;49.05;101073.91;2090544;28;47388;-49
2021/09/29 00:55:16;;;;;;;;;0.75;0.75;;;;;19.08;49.41;101079.28;2082716;28;47106;-51
2021/09/29 00:56:16;;;;;;;;;0.33;0.33;;;;;19.09;49.04;101072.97;2087480;28;48113;-49
2021/09/29 00:57:17;;;;;;;;;0.33;0.33;;;;;19.07;48.99;101074.84;2090480;28;48296;-49
2021/09/29 00:58:17;;;;;;;;;0.00;0.00;;;;;19.08;49.34;101068.53;2093968;28;47155;-51
2021/09/29 00:59:18;;;;;;;;;0.00;0.00;;;;;19.06;49.44;101068.59;2093762;28;47228;-51
2021/09/29 01:00:19;;;;;;;;;1.33;1.00;;;;;19.07;49.32;101077.56;2094085;28;47272;-50
2021/09/29 01:01:19;;;;;;;;;0.75;0.75;;;;;19.06;49.25;101071.31;2085863;28;48238;-49
2021/09/29 01:02:21;;;;;;;;;0.00;0.00;;;;;19.06;49.36;101071.31;2076813;28;47065;-52
2021/09/29 01:03:22;;;;;;;;;1.00;1.00;;;;;19.06;49.19;101074.00;2091885;28;47149;-50
2021/09/29 01:04:26;;;;;;;;;1.00;1.00;;;;;19.03;49.45;101074.13;2094007;28;47269;-52
2021/09/29 01:05:26;;;;;;;;;0.50;0.50;;;;;19.04;49.55;101067.78;2093515;28;47530;-51
2021/09/29 01:07:07;;;;;;;;;0.00;0.00;;;;;19.04;49.96;101066.91;2093351;28;47097;-50
2021/09/29 01:08:18;;;;;;;;;0.75;0.75;;;;;19.01;49.62;101070.66;2090450;28;47527;-51
2021/09/29 01:09:47;;;;;;;;;2.25;1.00;;;;;19.03;49.57;101075.94;2087558;28;48292;-52
2021/09/29 01:11:15;;;;;;;;;1.25;1.00;;;;;19.03;49.81;101067.88;2084546;28;47298;-52
2021/09/29 01:12:42;;;;;;;;;1.00;1.00;;;;;19.02;49.60;101066.13;2092993;28;47397;-52
2021/09/29 01:13:53;;;;;;;;;0.25;0.25;;;;;19.01;49.81;101059.03;2091597;28;47609;-51
2021/09/29 01:15:00;;;;;;;;;0.75;0.75;;;;;18.99;49.94;101058.22;2094219;28;47598;-52
2021/09/29 01:16:04;;;;;;;;;1.00;0.75;;;;;18.99;49.72;101058.22;2093660;28;47639;-50
2021/09/29 01:17:05;;;;;;;;;0.00;0.00;;;;;18.99;49.87;101060.91;2093686;28;48403;-52
2021/09/29 01:18:09;;;;;;;;;0.25;0.25;;;;;18.98;49.58;101064.56;2088222;28;47799;-51
2021/09/29 01:19:26;;;;;;;;;0.75;0.75;;;;;18.96;49.86;101061.94;2093802;28;45347;-50
2021/09/29 01:20:49;;;;;;;;;0.00;0.00;;;;;18.96;49.77;101064.66;2093657;28;47689;-52
2021/09/29 01:21:57;;;;;;;;;1.50;1.25;;;;;18.96;50.07;101061.09;2093823;28;47442;-52
2021/09/29 01:23:16;;;;;;;;;0.75;0.75;;;;;18.94;50.26;101066.53;2094050;28;47255;-50
2021/09/29 01:24:35;;;;;;;;;1.50;1.00;;;;;18.93;50.10;101056.75;2092606;28;47624;-50
2021/09/29 01:25:54;;;;;;;;;0.75;0.75;;;;;18.92;50.17;101059.47;2088889;28;47278;-52
2021/09/29 01:26:56;;;;;;;;;0.00;0.00;;;;;18.91;50.14;101060.44;2093217;28;47298;-50
2021/09/29 01:28:00;;;;;;;;;0.00;0.00;;;;;18.90;50.11;101064.94;2092961;28;48301;-49
2021/09/29 01:29:09;;;;;;;;;1.00;1.00;;;;;18.89;50.47;101063.19;2093233;28;47643;-50
2021/09/29 01:30:10;;;;;;;;;1.75;0.75;;;;;18.88;50.37;101053.41;2092791;28;48363;-51
2021/09/29 01:31:11;;;;;;;;;0.00;0.00;;;;;18.87;50.15;101051.66;2092825;28;48226;-52
2021/09/29 01:32:12;;;;;;;;;1.00;1.00;;;;;18.89;50.45;101054.25;2093295;28;47410;-53
2021/09/29 01:33:14;;;;;;;;;0.00;0.00;;;;;18.87;50.29;101051.66;2093444;28;47559;-52
2021/09/29 01:34:15;;;;;;;;;4.00;1.25;;;;;18.88;50.83;101058.78;2093948;28;47601;-48
2021/09/29 01:35:16;;;;;;;;;1.00;0.33;;;;;18.88;50.72;101058.78;2093643;28;47477;-51
2021/09/29 01:36:18;;;;;;;;;0.75;0.75;;;;;18.88;50.67;101064.16;2094078;28;47232;-50
2021/09/29 01:37:19;;;;;;;;;0.00;0.00;;;;;18.88;50.56;101064.16;2093593;28;47469;-49
2021/09/29 01:38:20;;;;;;;;;0.33;0.33;;;;;18.89;50.62;101062.31;2093738;28;48106;-48
2021/09/29 01:39:25;;;;;;;;;0.00;0.00;;;;;18.89;50.80;101062.31;2093639;28;47044;-51
2021/09/29 01:40:26;;;;;;;;;0.75;0.00;;;;;18.89;50.79;101057.81;2093718;28;47011;-50
2021/09/29 01:41:31;;;;;;;;;0.33;0.33;;;;;18.90;50.73;101058.69;2093175;28;48241;-52
2021/09/29 01:42:31;;;;;;;;;0.00;0.00;;;;;18.90;50.58;101054.19;2093671;28;47906;-52
2021/09/29 01:43:33;;;;;;;;;0.67;0.67;;;;;18.89;50.78;101049.75;2093576;28;48442;-50
2021/09/29 01:44:33;;;;;;;;;0.00;0.00;;;;;18.88;50.64;101055.22;2093960;28;48453;-53
2021/09/29 01:45:36;;;;;;;;;0.00;0.00;;;;;18.89;50.68;101051.56;2095043;28;47552;-50
2021/09/29 01:46:38;;;;;;;;;0.00;0.00;;;;;18.88;50.84;101053.41;2093153;28;48137;-50
2021/09/29 01:47:39;;;;;;;;;1.00;1.00;;;;;18.88;50.78;101045.31;2092761;28;47300;-48
2021/09/29 01:48:53;;;;;;;;;1.67;1.00;;;;;18.88;50.69;101050.72;2093316;28;46998;-51
2021/09/29 01:50:00;;;;;;;;;0.00;0.00;;;;;18.89;50.89;101052.44;2089607;28;47353;-50
2021/09/29 01:51:01;;;;;;;;;2.25;1.00;;;;;18.89;51.01;101052.44;2093339;28;47529;-52
2021/09/29 01:52:04;;;;;;;;;0.00;0.00;;;;;18.89;50.97;101041.69;2093425;28;47447;-52
2021/09/29 01:53:08;;;;;;;;;0.50;0.00;;;;;18.89;50.71;101047.06;2093508;28;48434;-51
2021/09/29 01:54:13;;;;;;;;;0.75;0.75;;;;;18.88;51.45;101050.72;2089346;28;47513;-52
2021/09/29 01:55:18;;;;;;;;;0.00;0.00;;;;;18.88;50.94;101056.09;2092982;28;47150;-49
2021/09/29 01:56:18;;;;;;;;;0.00;0.00;;;;;18.86;51.17;101054.44;2085317;28;46353;-51
2021/09/29 01:57:20;;;;;;;;;0.67;0.67;;;;;18.83;51.21;101047.41;2092656;28;47259;-52
2021/09/29 01:58:20;;;;;;;;;1.00;1.00;;;;;18.80;51.30;101043.03;2093057;28;47548;-48
2021/09/29 01:59:24;;;;;;;;;0.33;0.00;;;;;18.81;51.26;101046.59;2083944;28;47345;-49
2021/09/29 02:00:25;;;;;;;;;0.00;0.00;;;;;18.78;51.44;101039.53;2092735;28;45071;-49
2021/09/29 02:01:25;;;;;;;;;0.00;0.00;;;;;18.77;51.16;101035.09;2093411;28;47332;-48
2021/09/29 02:02:26;;;;;;;;;0.67;0.67;;;;;18.76;51.42;101035.19;2093016;28;46398;-53
2021/09/29 02:03:26;;;;;;;;;1.00;1.00;;;;;18.74;51.67;101035.28;2092926;28;47382;-50
2021/09/29 02:04:27;;;;;;;;;0.33;0.33;;;;;18.72;51.65;101034.47;2093622;28;46086;-51
2021/09/29 02:05:29;;;;;;;;;1.00;1.00;;;;;18.71;51.52;101038.13;2093459;28;45804;-51
2021/09/29 02:06:30;;;;;;;;;1.75;1.75;;;;;18.70;51.46;101041.75;2093738;28;45306;-50
2021/09/29 02:07:31;;;;;;;;;0.00;0.00;;;;;18.68;51.80;101035.59;2093572;28;46163;-53
2021/09/29 02:08:31;;;;;;;;;1.33;1.00;;;;;18.68;51.90;101035.59;2093492;28;45668;-49
2021/09/29 02:09:32;;;;;;;;;1.67;0.67;;;;;18.67;51.84;101043.72;2091644;28;45515;-52
2021/09/29 02:10:32;;;;;;;;;0.33;0.33;;;;;18.66;52.08;101031.22;2092500;28;48393;-52
2021/09/29 02:11:33;;;;;;;;;0.00;0.00;;;;;18.67;52.18;101038.34;2092366;28;46836;-50
2021/09/29 02:12:37;;;;;;;;;0.00;0.00;;;;;18.67;52.11;101025.75;2092136;28;47194;-49
2021/09/29 02:13:37;;;;;;;;;0.00;0.00;;;;;18.67;51.92;101044.56;2092443;28;48391;-51
2021/09/29 02:14:38;;;;;;;;;4.67;2.00;;;;;18.67;52.25;101032.97;2091639;28;48232;-52
2021/09/29 02:15:38;;;;;;;;;0.33;0.33;;;;;18.66;52.23;101042.84;2085999;28;46303;-50
2021/09/29 02:16:39;;;;;;;;;0.00;0.00;;;;;18.67;52.35;101041.03;2084590;28;46218;-49
2021/09/29 02:17:40;;;;;;;;;0.25;0.25;;;;;18.65;52.27;101041.09;2092122;28;48329;-49
2021/09/29 02:18:40;;;;;;;;;0.00;0.00;;;;;18.64;52.46;101035.81;2092690;28;47733;-52
2021/09/29 02:19:41;;;;;;;;;1.00;1.00;;;;;18.62;52.38;101029.59;2100572;28;46378;-51
2021/09/29 02:20:42;;;;;;;;;0.67;0.00;;;;;18.61;52.29;101033.25;2092999;27;47175;-51
2021/09/29 02:21:43;;;;;;;;;0.50;0.50;;;;;18.60;52.65;101032.38;2091312;28;46959;-51
2021/09/29 02:22:44;;;;;;;;;2.00;1.00;;;;;18.59;52.82;101029.78;2083282;28;46058;-49
2021/09/29 02:23:44;;;;;;;;;1.00;1.00;;;;;18.59;52.86;101030.63;2090143;28;45451;-50
2021/09/29 02:24:45;;;;;;;;;1.00;0.67;;;;;18.59;52.90;101021.72;2088088;28;46778;-51
2021/09/29 02:25:46;;;;;;;;;0.00;0.00;;;;;18.58;52.86;101034.28;2090929;28;45335;-51
2021/09/29 02:26:46;;;;;;;;;1.33;1.00;;;;;18.59;53.36;101032.47;2092353;28;47155;-51
2021/09/29 02:27:47;;;;;;;;;1.00;0.00;;;;;18.60;52.91;101032.38;2091773;28;47286;-50
2021/09/29 02:28:47;;;;;;;;;0.00;0.00;;;;;18.61;52.89;101025.19;2091622;28;48464;-48
2021/09/29 02:29:48;;;;;;;;;1.00;1.00;;;;;18.62;53.12;101033.16;2090903;28;46773;-51
2021/09/29 02:30:48;;;;;;;;;0.33;0.33;;;;;18.63;53.18;101029.53;2097258;28;46976;-53
2021/09/29 02:31:49;;;;;;;;;1.00;1.00;;;;;18.63;53.17;101037.59;2091992;28;47351;-51
2021/09/29 02:32:50;;;;;;;;;0.00;0.00;;;;;18.64;53.18;101038.50;2092425;28;47587;-48
2021/09/29 02:33:50;;;;;;;;;0.67;0.00;;;;;18.64;53.25;101042.06;2091203;28;47324;-48
2021/09/29 02:34:50;;;;;;;;;0.00;0.00;;;;;18.63;53.23;101051.03;2091612;28;47371;-52
2021/09/29 02:35:51;;;;;;;;;1.00;1.00;;;;;18.62;53.45;101046.59;2091783;28;47397;-49
2021/09/29 02:36:51;;;;;;;;;1.67;0.67;;;;;18.62;53.40;101048.44;2092265;28;47061;-50
2021/09/29 02:37:52;;;;;;;;;1.00;1.00;;;;;18.61;53.32;101052.06;2091869;28;47403;-49
2021/09/29 02:38:52;;;;;;;;;2.00;1.00;;;;;18.62;53.75;101037.66;2091590;28;47266;-49
2021/09/29 02:39:53;;;;;;;;;0.00;0.00;;;;;18.60;53.56;101040.44;2091841;28;46124;-53
2021/09/29 02:40:53;;;;;;;;;0.33;0.33;;;;;18.59;53.86;101033.31;2091756;28;47361;-50
2021/09/29 02:41:54;;;;;;;;;0.33;0.33;;;;;18.58;53.44;101036.97;2099597;28;48241;-50
2021/09/29 02:42:54;;;;;;;;;1.67;1.00;;;;;18.58;53.84;101039.66;2082816;28;48081;-49
2021/09/29 02:43:55;;;;;;;;;1.33;0.00;;;;;18.57;53.57;101040.59;2091188;28;46439;-51
2021/09/29 02:44:55;;;;;;;;;0.00;0.00;;;;;18.57;53.74;101039.72;2092268;28;46873;-50
2021/09/29 02:45:56;;;;;;;;;0.00;0.00;;;;;18.56;53.94;101033.50;2093057;28;47493;-50
2021/09/29 02:46:56;;;;;;;;;2.00;0.33;;;;;18.56;54.34;101040.69;2091425;28;47406;-51
2021/09/29 02:47:56;;;;;;;;;0.00;0.00;;;;;18.56;54.01;101041.56;2091978;28;47404;-50
2021/09/29 02:48:57;;;;;;;;;1.33;0.00;;;;;18.57;54.11;101045.09;2092384;28;47469;-51
2021/09/29 02:49:57;;;;;;;;;0.00;0.00;;;;;18.57;54.13;101043.28;2095567;28;47405;-50
2021/09/29 02:50:59;;;;;;;;;0.00;0.00;;;;;18.57;54.00;101045.09;2093883;28;46884;-48
2021/09/29 02:52:00;;;;;;;;;1.00;1.00;;;;;18.56;54.34;101041.56;2091124;28;47122;-46
2021/09/29 02:53:00;;;;;;;;;2.00;0.00;;;;;18.56;54.28;101046.06;2091511;28;48448;-49
2021/09/29 02:54:01;;;;;;;;;0.00;0.00;;;;;18.55;54.38;101042.50;2091286;28;47144;-51
2021/09/29 02:55:03;;;;;;;;;1.75;1.75;;;;;18.54;54.55;101041.59;2087978;28;46840;-49
2021/09/29 02:56:04;;;;;;;;;1.00;0.00;;;;;18.53;54.76;101042.53;2084877;28;48331;-50
2021/09/29 02:57:05;;;;;;;;;0.25;0.25;;;;;18.54;54.89;101046.97;2091929;28;46268;-49
2021/09/29 02:58:06;;;;;;;;;0.00;0.00;;;;;18.54;54.52;101043.41;2092009;28;48665;-49
2021/09/29 02:59:09;;;;;;;;;1.00;1.00;;;;;18.55;54.82;101045.19;2091688;28;47529;-51
2021/09/29 03:00:13;;;;;;;;;0.00;0.00;;;;;18.56;54.95;101048.75;2091488;28;48251;-48
2021/09/29 03:01:13;;;;;;;;;0.00;0.00;;;;;18.57;54.86;101045.09;2091224;28;46153;-49
2021/09/29 03:02:14;;;;;;;;;0.00;0.00;;;;;18.57;55.02;101054.03;2092352;28;47153;-47
2021/09/29 03:03:14;;;;;;;;;0.00;0.00;;;;;18.59;54.86;101051.28;2091845;28;47021;-49
2021/09/29 03:04:14;;;;;;;;;1.33;0.00;;;;;18.59;54.77;101054.84;2092181;28;47119;-51
2021/09/29 03:05:15;;;;;;;;;1.00;1.00;;;;;18.58;55.02;101050.41;2091683;28;48008;-50
2021/09/29 03:06:15;;;;;;;;;1.00;0.67;;;;;18.59;55.40;101053.97;2092150;28;45334;-49
2021/09/29 03:07:16;;;;;;;;;0.00;0.00;;;;;18.58;55.21;101054.91;2091839;28;46169;-53
2021/09/29 03:08:17;;;;;;;;;1.33;1.00;;;;;18.58;55.35;101054.91;2092118;28;45332;-52
2021/09/29 03:09:17;;;;;;;;;0.33;0.33;;;;;18.56;55.23;101046.94;2091825;28;46349;-49
2021/09/29 03:10:17;;;;;;;;;0.67;0.67;;;;;18.58;55.50;101057.59;2092174;28;46770;-51
2021/09/29 03:11:18;;;;;;;;;2.00;0.00;;;;;18.58;55.10;101052.22;2091697;28;45391;-51
2021/09/29 03:12:18;;;;;;;;;0.00;0.00;;;;;18.58;55.10;101050.41;2092067;28;47273;-47
2021/09/29 03:13:19;;;;;;;;;0.67;0.33;;;;;18.59;55.44;101049.44;2091802;28;48197;-51
2021/09/29 03:14:19;;;;;;;;;0.00;0.00;;;;;18.59;55.36;101052.13;2091925;28;47841;-50
2021/09/29 03:15:20;;;;;;;;;0.00;0.00;;;;;18.59;55.60;101044.06;2091652;28;48129;-50
2021/09/29 03:16:21;;;;;;;;;0.00;0.00;;;;;18.61;55.38;101055.63;2092112;28;47976;-49
2021/09/29 03:17:22;;;;;;;;;0.00;0.00;;;;;18.61;55.47;101055.63;2091601;28;48334;-51
2021/09/29 03:18:22;;;;;;;;;0.00;0.00;;;;;18.63;55.59;101068.97;2092145;28;47916;-52
2021/09/29 03:19:23;;;;;;;;;1.67;0.67;;;;;18.64;55.53;101065.38;2091447;28;46313;-49
2021/09/29 03:20:26;;;;;;;;;1.00;0.00;;;;;18.64;55.61;101060.00;2090889;28;47141;-51
2021/09/29 03:21:27;;;;;;;;;1.00;1.00;;;;;18.64;55.70;101043.88;2091044;28;47403;-53
2021/09/29 03:22:27;;;;;;;;;0.00;0.00;;;;;18.66;55.67;101053.59;2092207;28;46238;-49
2021/09/29 03:23:28;;;;;;;;;0.00;0.00;;;;;18.68;55.42;101048.16;2091711;28;47055;-52
2021/09/29 03:24:29;;;;;;;;;1.00;1.00;;;;;18.68;55.54;101057.09;2083006;28;48156;-49
2021/09/29 03:25:30;;;;;;;;;1.50;0.00;;;;;18.69;55.61;101052.59;2082565;28;48172;-51
2021/09/29 03:26:30;;;;;;;;;1.33;1.33;;;;;18.69;55.56;101036.47;2092741;28;48108;-49
2021/09/29 03:27:31;;;;;;;;;0.00;0.00;;;;;18.69;55.66;101036.47;2091503;28;48131;-52
2021/09/29 03:28:31;;;;;;;;;0.00;0.00;;;;;18.69;55.61;101033.78;2091378;28;46314;-48
2021/09/29 03:29:32;;;;;;;;;0.00;0.00;;;;;18.69;55.64;101040.03;2082617;28;45337;-51
2021/09/29 03:30:32;;;;;;;;;0.00;0.00;;;;;18.68;55.78;101040.97;2091301;28;47341;-50
2021/09/29 03:31:33;;;;;;;;;0.00;0.00;;;;;18.70;55.95;101040.91;2088907;28;46155;-51
2021/09/29 03:32:33;;;;;;;;;1.00;1.00;;;;;18.69;55.88;101040.03;2089993;28;46603;-52
2021/09/29 03:33:34;;;;;;;;;0.00;0.00;;;;;18.69;55.87;101037.34;2090613;28;47834;-47
2021/09/29 03:34:34;;;;;;;;;1.00;1.00;;;;;18.69;55.73;101036.47;2091818;28;47154;-52
2021/09/29 03:35:35;;;;;;;;;0.33;0.33;;;;;18.69;55.54;101031.09;2091391;28;47991;-50
2021/09/29 03:36:36;;;;;;;;;0.67;0.67;;;;;18.68;55.78;101027.53;2091755;28;47248;-48
2021/09/29 03:37:37;;;;;;;;;1.00;1.00;;;;;18.69;56.06;101031.09;2091272;28;48664;-52
2021/09/29 03:38:37;;;;;;;;;1.00;1.00;;;;;18.69;55.92;101028.41;2091532;28;47968;-51
2021/09/29 03:39:38;;;;;;;;;1.33;1.33;;;;;18.68;56.01;101032.03;2091406;28;47377;-48
2021/09/29 03:40:38;;;;;;;;;1.67;0.00;;;;;18.68;55.65;101037.41;2091915;28;47275;-51
2021/09/29 03:41:39;;;;;;;;;0.00;0.00;;;;;18.70;56.08;101038.19;2091574;28;46016;-52
2021/09/29 03:42:41;;;;;;;;;0.00;0.00;;;;;18.71;55.96;101034.56;2090823;28;47099;-48
2021/09/29 03:43:41;;;;;;;;;0.00;0.00;;;;;18.71;55.85;101048.00;2090934;28;47349;-48
2021/09/29 03:44:42;;;;;;;;;0.00;0.00;;;;;18.71;55.75;101039.94;2090572;28;47316;-51
2021/09/29 03:45:42;;;;;;;;;0.00;0.00;;;;;18.72;56.02;101041.69;2092640;28;47417;-51
2021/09/29 03:46:42;;;;;;;;;2.33;0.00;;;;;18.73;55.92;101032.66;2090833;28;47342;-53
2021/09/29 03:47:44;;;;;;;;;1.00;0.00;;;;;18.72;55.82;101044.38;2091460;28;48120;-49
2021/09/29 03:48:45;;;;;;;;;0.25;0.25;;;;;18.73;56.25;101035.34;2091030;28;47248;-52
2021/09/29 03:49:45;;;;;;;;;0.00;0.00;;;;;18.75;55.96;101041.53;2092428;28;48121;-53
2021/09/29 03:50:45;;;;;;;;;1.67;0.33;;;;;18.74;56.01;101042.47;2105292;27;46772;-52
2021/09/29 03:51:46;;;;;;;;;0.33;0.33;;;;;18.74;56.06;101048.72;2099265;28;47208;-52
2021/09/29 03:52:47;;;;;;;;;0.00;0.00;;;;;18.75;56.41;101044.22;2091396;28;47317;-48
2021/09/29 03:53:47;;;;;;;;;0.00;0.00;;;;;18.74;56.36;101045.16;2091526;28;46523;-49
2021/09/29 03:54:48;;;;;;;;;0.00;0.00;;;;;18.74;56.24;101042.47;2091480;28;48328;-51
2021/09/29 03:55:49;;;;;;;;;0.33;0.33;;;;;18.73;56.25;101038.03;2091402;28;48115;-49
2021/09/29 03:56:50;;;;;;;;;0.25;0.25;;;;;18.73;56.00;101055.03;2091580;28;47131;-49
2021/09/29 03:57:50;;;;;;;;;2.00;0.67;;;;;18.72;56.29;101056.00;2091462;28;47157;-52
2021/09/29 03:58:51;;;;;;;;;1.00;1.00;;;;;18.72;56.17;101053.31;2090965;28;47643;-51
2021/09/29 03:59:51;;;;;;;;;0.00;0.00;;;;;18.72;56.17;101055.13;2082366;28;47480;-52
2021/09/29 04:00:52;;;;;;;;;0.00;0.00;;;;;18.71;56.44;101058.75;2088767;28;45517;-52
2021/09/29 04:01:52;;;;;;;;;0.67;0.00;;;;;18.71;56.49;101053.38;2091508;28;47268;-49
2021/09/29 04:02:55;;;;;;;;;0.00;0.00;;;;;18.70;56.48;101052.50;2091281;28;47371;-52
2021/09/29 04:03:55;;;;;;;;;0.00;0.00;;;;;18.70;56.47;101055.22;2090800;28;47150;-52
2021/09/29 04:04:56;;;;;;;;;1.00;0.00;;;;;18.69;56.55;101050.78;2090968;28;47346;-51
2021/09/29 04:05:56;;;;;;;;;0.00;0.00;;;;;18.68;56.23;101051.72;2090659;28;47512;-52
2021/09/29 04:06:57;;;;;;;;;1.33;1.33;;;;;18.69;56.41;101056.16;2082790;28;46926;-51
2021/09/29 04:07:57;;;;;;;;;2.00;1.00;;;;;18.69;56.43;101060.66;2090406;28;47369;-51
2021/09/29 04:08:59;;;;;;;;;1.00;1.00;;;;;18.68;56.60;101053.53;2091662;28;47948;-51
2021/09/29 04:10:00;;;;;;;;;0.75;0.75;;;;;18.67;56.81;101054.47;2082419;28;47959;-53
2021/09/29 04:11:01;;;;;;;;;2.00;1.00;;;;;18.66;56.78;101058.09;2058310;28;47768;-50
2021/09/29 04:12:01;;;;;;;;;0.00;0.00;;;;;18.64;57.11;101052.81;2074023;28;47454;-53
2021/09/29 04:13:02;;;;;;;;;0.00;0.00;;;;;18.64;56.70;101060.00;2089445;28;47265;-52
2021/09/29 04:14:03;;;;;;;;;0.25;0.25;;;;;18.61;57.01;101062.81;2091428;28;46293;-53
2021/09/29 04:15:03;;;;;;;;;0.00;0.00;;;;;18.61;56.61;101049.38;2090714;28;47117;-51
2021/09/29 04:16:04;;;;;;;;;0.00;0.00;;;;;18.60;56.85;101053.88;2091012;28;44997;-51
2021/09/29 04:17:05;;;;;;;;;0.00;0.00;;;;;18.59;56.89;101051.28;2091689;28;47244;-50
2021/09/29 04:18:05;;;;;;;;;0.00;0.00;;;;;18.59;56.94;101056.66;2091324;28;48153;-52
2021/09/29 04:19:06;;;;;;;;;0.00;0.00;;;;;18.57;56.89;101050.47;2095654;28;47167;-51
2021/09/29 04:20:07;;;;;;;;;0.33;0.00;;;;;18.58;57.08;101054.91;2092180;28;47171;-53
2021/09/29 04:21:11;;;;;;;;;0.00;0.00;;;;;18.58;56.89;101044.16;2090629;28;48514;-51
2021/09/29 04:22:12;;;;;;;;;0.00;0.00;;;;;18.57;57.02;101063.91;2091486;28;47277;-51
2021/09/29 04:23:12;;;;;;;;;0.00;0.00;;;;;18.57;57.15;101061.25;2082319;28;45306;-52
2021/09/29 04:24:13;;;;;;;;;1.00;0.33;;;;;18.56;57.17;101055.00;2076812;28;47572;-52
2021/09/29 04:25:13;;;;;;;;;0.00;0.00;;;;;18.57;57.31;101061.25;2094716;28;48746;-51
2021/09/29 04:26:14;;;;;;;;;0.00;0.00;;;;;18.57;57.41;101055.84;2098860;28;48117;-51
2021/09/29 04:27:15;;;;;;;;;0.00;0.00;;;;;18.57;57.41;101061.25;2090745;28;47612;-51
2021/09/29 04:28:15;;;;;;;;;1.00;1.00;;;;;18.56;57.39;101057.69;2082496;28;47200;-51
2021/09/29 04:29:16;;;;;;;;;1.00;1.00;;;;;18.56;57.36;101059.50;2075003;28;47096;-51
2021/09/29 04:30:16;;;;;;;;;1.00;1.00;;;;;18.56;57.36;101065.75;2087477;28;48048;-52
2021/09/29 04:31:17;;;;;;;;;0.00;0.00;;;;;18.56;57.31;101064.88;2099075;28;46039;-53
2021/09/29 04:32:17;;;;;;;;;2.00;0.67;;;;;18.57;57.28;101055.84;2098551;28;48175;-52
2021/09/29 04:33:18;;;;;;;;;0.00;0.00;;;;;18.56;57.57;101057.69;2090352;28;48561;-53
2021/09/29 04:34:18;;;;;;;;;0.00;0.00;;;;;18.57;57.44;101059.41;2090813;28;47029;-52
2021/09/29 04:35:19;;;;;;;;;2.00;0.00;;;;;18.59;57.26;101062.03;2091020;28;48309;-52
2021/09/29 04:36:19;;;;;;;;;0.00;0.00;;;;;18.58;57.55;101061.16;2091563;28;47105;-49
2021/09/29 04:37:20;;;;;;;;;0.00;0.00;;;;;18.60;57.61;101063.75;2091068;28;47558;-52
2021/09/29 04:38:21;;;;;;;;;1.00;0.00;;;;;18.61;57.29;101068.19;2090653;28;47282;-48
2021/09/29 04:39:22;;;;;;;;;0.00;0.00;;;;;18.61;57.42;101065.50;2090441;28;48234;-51
2021/09/29 04:40:22;;;;;;;;;0.00;0.00;;;;;18.61;57.35;101066.38;2091515;28;48685;-48
2021/09/29 04:41:23;;;;;;;;;0.00;0.00;;;;;18.60;57.68;101067.31;2082028;28;48220;-52
2021/09/29 04:42:23;;;;;;;;;0.00;0.00;;;;;18.60;57.30;101075.38;2082252;28;47308;-50
2021/09/29 04:43:24;;;;;;;;;1.00;1.00;;;;;18.59;57.78;101075.47;2090897;28;47225;-52
2021/09/29 04:44:25;;;;;;;;;0.00;0.00;;;;;18.58;57.90;101079.09;2091001;28;45403;-49
2021/09/29 04:45:26;;;;;;;;;0.00;0.00;;;;;18.57;57.58;101072.84;2090665;28;47974;-47
2021/09/29 04:46:26;;;;;;;;;1.00;1.00;;;;;18.57;57.83;101072.00;2092687;27;47127;-46
2021/09/29 04:47:27;;;;;;;;;0.33;0.33;;;;;18.56;57.96;101073.81;2091023;28;47189;-49